Terminal Aerodrome Forecast
Issued by NWS Austin/San Antonio, TX

Home | Current Version | Previous Version | Text Only | Print | Product List | Glossary On
Versions: 1 2 3 4 5 6 7 8 9 10 11 12 13 14 15 16 17 18
669
FTUS44 KEWX 211741
TAFSAT
TAF
KSAT 211741Z 2118/2224 10007KT 6SM -RADZ BR BKN007 OVC012
      TEMPO 2118/2119 3SM SHRA BR OVC004
     FM212000 16008KT P6SM VCSH OVC015
     FM212300 15004KT P6SM BKN035
     FM220500 33010KT 6SM BR VCSH BKN015
     FM220700 35010KT P6SM FEW250=

USA.gov is the U.S. government's official web portal to all federal, state and local government web resources and services.